Time;durP1;ratioP1;P1;durP2;ratioP2;P2;SDS_P1;SDS_P2;PMS_P1;PMS_P2;Temp;Humidity;BMP_temperature;BMP_pressure;BME280_temperature;BME280_humidity;BME280_pressure;Samples;Min_cycle;Max_cycle;Signal;HPM_P1;HPM_P2
2020/12/27 00:00:32;;;;;;;0.77;0.77;;;-3.90;99.90;;;;;;5112001;28;20187;-66
2020/12/27 00:02:58;;;;;;;0.22;0.22;;;-4.00;99.90;;;;;;5112022;28;20224;-66
2020/12/27 00:05:24;;;;;;;0.70;0.70;;;-3.90;99.90;;;;;;5111955;28;20266;-66
2020/12/27 00:07:49;;;;;;;0.20;0.20;;;-3.90;99.90;;;;;;5111909;28;20147;-67
2020/12/27 00:10:15;;;;;;;0.20;0.20;;;-4.00;99.90;;;;;;5111992;28;20182;-67
2020/12/27 00:12:41;;;;;;;0.20;0.20;;;-4.10;99.90;;;;;;5111864;28;20163;-67
2020/12/27 00:15:07;;;;;;;0.20;0.20;;;-4.10;99.90;;;;;;5111762;28;20190;-68
2020/12/27 00:17:33;;;;;;;0.73;0.57;;;-4.10;99.90;;;;;;5111728;28;20162;-65
2020/12/27 00:19:59;;;;;;;0.30;0.30;;;-4.00;99.90;;;;;;5110258;28;20217;-65
2020/12/27 00:22:24;;;;;;;0.20;0.20;;;-3.90;99.90;;;;;;5110180;28;20219;-65
2020/12/27 00:24:50;;;;;;;0.20;0.20;;;-3.90;99.90;;;;;;5110204;28;20209;-66
2020/12/27 00:27:17;;;;;;;0.10;0.10;;;-3.80;99.90;;;;;;5111550;28;20223;-65
2020/12/27 00:29:43;;;;;;;0.30;0.30;;;-3.90;99.90;;;;;;5111518;28;20187;-65
2020/12/27 00:32:10;;;;;;;0.38;0.38;;;-3.90;99.90;;;;;;5110197;28;20220;-66
2020/12/27 00:34:37;;;;;;;0.30;0.30;;;-4.10;99.90;;;;;;5111411;28;20573;-67
2020/12/27 00:37:03;;;;;;;0.20;0.20;;;-4.10;99.90;;;;;;5111476;28;20152;-65
2020/12/27 00:39:29;;;;;;;0.47;0.47;;;-4.10;99.90;;;;;;5111439;28;20179;-66
2020/12/27 00:41:59;;;;;;;0.10;0.10;;;-4.00;99.90;;;;;;5111270;28;20166;-65
2020/12/27 00:44:26;;;;;;;1.77;1.73;;;-4.00;99.90;;;;;;5110864;28;20218;-66
2020/12/27 00:46:52;;;;;;;0.65;0.65;;;-4.00;99.90;;;;;;5111109;28;20152;-65
2020/12/27 00:49:19;;;;;;;0.10;0.10;;;-3.90;99.90;;;;;;5111277;28;20680;-66
2020/12/27 00:51:45;;;;;;;0.55;0.55;;;-4.00;99.90;;;;;;5111042;28;20156;-66
2020/12/27 00:54:12;;;;;;;0.20;0.20;;;-4.00;99.90;;;;;;5111002;28;20201;-65
2020/12/27 00:56:38;;;;;;;0.40;0.40;;;-3.90;99.90;;;;;;5111016;28;20627;-65
2020/12/27 00:59:04;;;;;;;0.52;0.52;;;-3.80;99.90;;;;;;5110850;28;20187;-68
2020/12/27 01:01:30;;;;;;;0.20;0.20;;;-3.70;99.90;;;;;;5110895;28;20155;-65
2020/12/27 01:03:57;;;;;;;0.13;0.13;;;-3.80;99.90;;;;;;5110964;28;20151;-66
2020/12/27 01:06:24;;;;;;;0.20;0.20;;;-3.90;99.90;;;;;;5110915;28;20627;-66
2020/12/27 01:08:51;;;;;;;0.20;0.20;;;-4.20;99.90;;;;;;5110731;28;20156;-66
2020/12/27 01:11:17;;;;;;;0.20;0.20;;;-4.20;99.90;;;;;;5110664;28;20155;-65
2020/12/27 01:13:43;;;;;;;0.20;0.20;;;-4.20;99.90;;;;;;5109260;28;20171;-67
2020/12/27 01:16:10;;;;;;;0.13;0.13;;;-4.40;99.90;;;;;;5110634;28;20224;-67
2020/12/27 01:18:37;;;;;;;0.30;0.30;;;-4.40;99.90;;;;;;5110520;28;20155;-67
2020/12/27 01:21:02;;;;;;;0.20;0.20;;;-4.50;99.90;;;;;;5110622;28;20158;-68
2020/12/27 01:23:28;;;;;;;0.28;0.28;;;-4.60;99.90;;;;;;5110449;28;20160;-65
2020/12/27 01:25:54;;;;;;;0.25;0.25;;;-4.50;99.90;;;;;;5110405;28;20219;-67
2020/12/27 01:28:20;;;;;;;1.85;1.75;;;-4.30;99.90;;;;;;5110236;28;20160;-66
2020/12/27 01:30:46;;;;;;;0.20;0.20;;;-4.50;99.90;;;;;;5110340;28;20170;-67
2020/12/27 01:33:12;;;;;;;0.20;0.20;;;-4.50;99.90;;;;;;5109699;28;20164;-67
2020/12/27 01:35:37;;;;;;;0.40;0.40;;;-4.50;99.90;;;;;;5110100;28;20324;-67
2020/12/27 01:38:04;;;;;;;0.20;0.20;;;-4.40;99.90;;;;;;5108881;28;20167;-64
2020/12/27 01:40:30;;;;;;;1.20;1.20;;;-4.30;99.90;;;;;;5108788;28;20206;-67
2020/12/27 01:42:59;;;;;;;0.20;0.20;;;-4.30;99.90;;;;;;5109795;28;20226;-66
2020/12/27 01:45:26;;;;;;;0.22;0.22;;;-4.40;99.90;;;;;;5108501;28;20167;-64
2020/12/27 01:47:53;;;;;;;0.10;0.10;;;-4.20;99.90;;;;;;5109859;28;20175;-67
2020/12/27 01:50:20;;;;;;;0.20;0.20;;;-4.20;99.90;;;;;;5110104;28;20186;-65
2020/12/27 01:52:47;;;;;;;0.20;0.20;;;-4.40;99.90;;;;;;5108674;28;20186;-67
2020/12/27 01:55:13;;;;;;;0.20;0.20;;;-4.60;99.90;;;;;;5108620;28;20183;-67
2020/12/27 01:57:57;;;;;;;0.20;0.20;;;-4.70;99.90;;;;;;5109830;28;20215;-65
2020/12/27 02:00:23;;;;;;;0.20;0.20;;;-4.80;99.90;;;;;;5109700;28;20187;-67
2020/12/27 02:02:49;;;;;;;0.47;0.47;;;-4.90;99.90;;;;;;5109965;28;20222;-65
2020/12/27 02:05:15;;;;;;;2.30;0.70;;;-4.90;99.90;;;;;;5109790;28;20158;-67
2020/12/27 02:07:44;;;;;;;0.30;0.30;;;-4.90;99.90;;;;;;5109680;28;20199;-66
2020/12/27 02:10:12;;;;;;;0.40;0.40;;;-5.00;99.90;;;;;;5108386;28;20183;-67
2020/12/27 02:12:38;;;;;;;0.20;0.20;;;-5.10;99.90;;;;;;5109697;28;20166;-67
2020/12/27 02:15:05;;;;;;;0.47;0.47;;;-5.10;99.90;;;;;;5108228;28;20179;-66
2020/12/27 02:17:31;;;;;;;1.38;1.38;;;-5.00;99.90;;;;;;5109426;28;20212;-67
2020/12/27 02:19:57;;;;;;;0.30;0.30;;;-4.80;99.90;;;;;;5109662;28;20195;-66
2020/12/27 02:22:23;;;;;;;1.10;1.10;;;-4.70;99.90;;;;;;5109629;28;20211;-67
2020/12/27 02:24:49;;;;;;;0.40;0.40;;;-4.70;99.90;;;;;;5109470;28;20243;-67
2020/12/27 02:27:15;;;;;;;0.20;0.20;;;-4.70;99.90;;;;;;5109522;28;20199;-66
2020/12/27 02:29:41;;;;;;;0.10;0.10;;;-4.60;99.90;;;;;;5109535;28;20159;-67
2020/12/27 02:32:07;;;;;;;0.30;0.30;;;-4.60;99.90;;;;;;5108310;28;20204;-67
2020/12/27 02:34:32;;;;;;;0.82;0.82;;;-4.60;99.90;;;;;;5109426;28;20163;-66
2020/12/27 02:36:58;;;;;;;0.20;0.20;;;-4.60;99.90;;;;;;5109389;28;20689;-66
2020/12/27 02:39:24;;;;;;;0.20;0.20;;;-4.70;99.90;;;;;;5109350;28;20202;-66
2020/12/27 02:41:50;;;;;;;0.20;0.20;;;-4.60;99.90;;;;;;5109418;28;20163;-66
2020/12/27 02:44:17;;;;;;;0.20;0.20;;;-4.60;99.90;;;;;;5109451;28;20230;-66
2020/12/27 02:46:44;;;;;;;0.10;0.10;;;-4.60;99.90;;;;;;5113350;28;20198;-67
2020/12/27 02:49:10;;;;;;;0.30;0.30;;;-4.70;99.90;;;;;;5113478;28;20168;-67
2020/12/27 02:51:36;;;;;;;0.20;0.20;;;-4.70;99.90;;;;;;5113472;28;20239;-67
2020/12/27 02:54:02;;;;;;;0.20;0.20;;;-4.70;99.90;;;;;;5113342;28;20163;-66
2020/12/27 02:56:29;;;;;;;0.40;0.40;;;-4.70;99.90;;;;;;5113270;28;20192;-67
2020/12/27 02:59:00;;;;;;;0.30;0.30;;;-4.70;99.90;;;;;;5113219;28;20198;-67
2020/12/27 03:01:26;;;;;;;0.20;0.20;;;-4.60;99.90;;;;;;5113466;28;20563;-67
2020/12/27 03:03:52;;;;;;;0.30;0.30;;;-4.50;99.90;;;;;;5113208;28;20205;-67
2020/12/27 03:06:18;;;;;;;0.30;0.30;;;-4.50;99.90;;;;;;5111936;28;20195;-65
2020/12/27 03:08:45;;;;;;;0.20;0.20;;;-4.60;99.90;;;;;;5113216;28;20147;-67
2020/12/27 03:11:12;;;;;;;0.30;0.30;;;-4.70;99.90;;;;;;5113090;28;20160;-65
2020/12/27 03:13:38;;;;;;;2.15;2.05;;;-4.70;99.90;;;;;;5113010;28;20156;-67
2020/12/27 03:16:05;;;;;;;0.25;0.25;;;-4.70;99.90;;;;;;5112793;28;20187;-65
2020/12/27 03:18:32;;;;;;;0.40;0.40;;;-4.70;99.90;;;;;;5111555;28;20201;-65
2020/12/27 03:20:59;;;;;;;0.43;0.43;;;-4.60;99.90;;;;;;5112798;28;20187;-64
2020/12/27 03:23:25;;;;;;;2.47;0.77;;;-4.60;99.90;;;;;;5112792;28;20223;-65
2020/12/27 03:25:51;;;;;;;0.30;0.30;;;-4.60;99.90;;;;;;5112717;28;20199;-65
2020/12/27 03:28:17;;;;;;;0.20;0.20;;;-4.60;99.90;;;;;;5112650;28;20171;-66
2020/12/27 03:30:43;;;;;;;0.20;0.20;;;-4.60;99.90;;;;;;5112649;28;20160;-65
2020/12/27 03:33:10;;;;;;;0.20;0.20;;;-4.60;99.90;;;;;;5112620;28;20159;-65
2020/12/27 03:35:36;;;;;;;0.20;0.20;;;-4.70;99.90;;;;;;5112511;28;20160;-65
2020/12/27 03:38:02;;;;;;;0.35;0.35;;;-4.70;99.90;;;;;;5111207;28;20209;-65
2020/12/27 03:40:28;;;;;;;0.20;0.20;;;-4.70;99.90;;;;;;5111097;28;20211;-65
2020/12/27 03:42:54;;;;;;;0.20;0.20;;;-4.80;99.90;;;;;;5112267;28;20219;-65
2020/12/27 03:45:20;;;;;;;0.30;0.30;;;-4.80;99.90;;;;;;5110992;28;20167;-66
2020/12/27 03:47:46;;;;;;;0.20;0.20;;;-4.80;99.90;;;;;;5110983;28;20207;-65
2020/12/27 03:50:11;;;;;;;0.30;0.30;;;-4.70;99.90;;;;;;5112233;28;20159;-65
2020/12/27 03:52:37;;;;;;;0.22;0.22;;;-4.60;99.90;;;;;;5112240;28;20167;-67
2020/12/27 03:55:03;;;;;;;0.20;0.20;;;-4.80;99.90;;;;;;5111777;28;20167;-65
2020/12/27 03:57:29;;;;;;;0.20;0.20;;;-4.90;99.90;;;;;;5112047;28;20223;-66
2020/12/27 03:59:55;;;;;;;0.30;0.30;;;-5.00;99.90;;;;;;5111953;28;20195;-65
2020/12/27 04:02:21;;;;;;;1.65;1.55;;;-5.00;99.90;;;;;;5111954;28;20163;-65
2020/12/27 04:04:47;;;;;;;0.20;0.20;;;-4.80;99.90;;;;;;5110862;28;20639;-67
2020/12/27 04:07:13;;;;;;;1.23;1.20;;;-4.80;99.90;;;;;;5110562;28;20195;-67
2020/12/27 04:09:38;;;;;;;0.30;0.30;;;-4.90;99.90;;;;;;5110831;28;20175;-67
2020/12/27 04:12:04;;;;;;;1.05;1.05;;;-4.90;99.90;;;;;;5111778;28;20160;-65
2020/12/27 04:14:30;;;;;;;0.30;0.30;;;-4.80;99.90;;;;;;5110492;28;20201;-65
2020/12/27 04:16:56;;;;;;;0.20;0.20;;;-4.70;99.90;;;;;;5111543;28;20202;-65
2020/12/27 04:19:22;;;;;;;0.20;0.20;;;-4.70;99.90;;;;;;5111725;28;20195;-67
2020/12/27 04:21:48;;;;;;;0.20;0.20;;;-4.80;99.90;;;;;;5111788;28;20164;-67
2020/12/27 04:24:14;;;;;;;0.10;0.10;;;-4.70;99.90;;;;;;5111770;28;20215;-65
2020/12/27 04:26:41;;;;;;;0.25;0.25;;;-4.60;99.90;;;;;;5111541;28;20191;-67
2020/12/27 04:29:06;;;;;;;0.40;0.40;;;-4.60;99.90;;;;;;5111542;28;20174;-65
2020/12/27 04:31:32;;;;;;;0.30;0.30;;;-4.70;99.90;;;;;;5111336;28;20160;-67
2020/12/27 04:33:58;;;;;;;0.30;0.30;;;-4.80;99.90;;;;;;5111723;28;20172;-67
2020/12/27 04:36:24;;;;;;;0.20;0.20;;;-5.00;99.90;;;;;;5111297;28;20191;-67
2020/12/27 04:38:51;;;;;;;0.20;0.20;;;-5.00;99.90;;;;;;5111364;28;20166;-67
2020/12/27 04:41:18;;;;;;;0.20;0.20;;;-5.20;99.90;;;;;;5111301;28;20156;-66
2020/12/27 04:43:46;;;;;;;0.10;0.10;;;-5.20;99.90;;;;;;5111080;28;20751;-67
2020/12/27 04:46:13;;;;;;;0.30;0.30;;;-5.20;99.90;;;;;;5109657;28;20199;-67
2020/12/27 04:48:41;;;;;;;0.30;0.30;;;-5.10;99.90;;;;;;5111156;28;20499;-67
2020/12/27 04:51:08;;;;;;;0.32;0.32;;;-5.10;99.90;;;;;;5111181;28;20160;-67
2020/12/27 04:53:35;;;;;;;0.20;0.20;;;-5.30;99.90;;;;;;5110991;28;20159;-67
2020/12/27 04:56:03;;;;;;;0.30;0.30;;;-5.40;99.90;;;;;;5110818;28;20188;-66
2020/12/27 04:58:29;;;;;;;0.20;0.20;;;-5.50;99.90;;;;;;5110989;28;20166;-67
2020/12/27 05:00:56;;;;;;;0.20;0.20;;;-5.70;99.90;;;;;;5110852;28;20183;-67
2020/12/27 05:03:22;;;;;;;0.20;0.20;;;-5.80;99.90;;;;;;5110954;28;20632;-67
2020/12/27 05:05:50;;;;;;;0.30;0.30;;;-5.90;99.90;;;;;;5110765;28;20179;-67
2020/12/27 05:08:16;;;;;;;0.38;0.38;;;-6.00;99.90;;;;;;5109820;28;20191;-66
2020/12/27 05:10:43;;;;;;;0.30;0.30;;;-5.90;99.90;;;;;;5109401;28;20186;-66
2020/12/27 05:13:10;;;;;;;0.30;0.30;;;-5.90;99.90;;;;;;5109420;28;20257;-66
2020/12/27 05:15:37;;;;;;;0.68;0.68;;;-6.00;99.90;;;;;;5110453;28;20586;-67
2020/12/27 05:18:05;;;;;;;0.20;0.20;;;-6.00;99.90;;;;;;5110681;28;20183;-66
2020/12/27 05:20:32;;;;;;;0.45;0.45;;;-6.00;99.90;;;;;;5110385;28;20190;-66
2020/12/27 05:23:02;;;;;;;0.20;0.20;;;-6.00;99.90;;;;;;5109121;28;20159;-66
2020/12/27 05:25:29;;;;;;;0.60;0.60;;;-6.00;99.90;;;;;;5110448;28;20156;-66
2020/12/27 05:28:04;;;;;;;0.30;0.30;;;-5.70;99.90;;;;;;5110388;28;20162;-66
2020/12/27 05:30:30;;;;;;;0.85;0.85;;;-5.70;99.90;;;;;;5110323;28;20154;-67
2020/12/27 05:32:56;;;;;;;0.40;0.40;;;-5.60;99.90;;;;;;5110400;28;20171;-66
2020/12/27 05:35:22;;;;;;;0.20;0.20;;;-5.60;99.90;;;;;;5110144;28;20161;-66
2020/12/27 05:37:52;;;;;;;0.25;0.25;;;-5.40;99.90;;;;;;5110263;28;20261;-66
2020/12/27 05:40:19;;;;;;;0.20;0.20;;;-5.30;99.90;;;;;;5110067;28;20183;-67
2020/12/27 05:42:46;;;;;;;0.30;0.30;;;-5.20;99.90;;;;;;5109934;28;20241;-66
2020/12/27 05:45:20;;;;;;;0.30;0.30;;;-5.40;99.90;;;;;;5110061;28;20163;-66
2020/12/27 05:47:47;;;;;;;0.38;0.38;;;-5.50;99.90;;;;;;5110045;28;20238;-67
2020/12/27 05:50:17;;;;;;;0.30;0.30;;;-5.40;99.90;;;;;;5110091;28;20228;-67
2020/12/27 05:52:59;;;;;;;0.20;0.20;;;-5.30;99.90;;;;;;5110041;28;20156;-66
2020/12/27 05:55:25;;;;;;;0.20;0.20;;;-5.20;99.90;;;;;;5109832;28;20171;-66
2020/12/27 05:57:53;;;;;;;0.30;0.30;;;-5.40;99.90;;;;;;5109799;28;20175;-66
2020/12/27 06:00:23;;;;;;;0.10;0.10;;;-5.40;99.90;;;;;;5109599;28;20202;-67
2020/12/27 06:02:59;;;;;;;0.20;0.20;;;-5.20;99.90;;;;;;5109909;28;20242;-66
2020/12/27 06:05:51;;;;;;;0.20;0.20;;;-5.20;99.90;;;;;;5109744;28;20151;-67
2020/12/27 06:09:02;;;;;;;0.40;0.40;;;-5.10;99.90;;;;;;5109121;28;20179;-67
2020/12/27 06:11:52;;;;;;;0.20;0.20;;;-5.20;99.90;;;;;;5109707;28;20151;-67
2020/12/27 06:14:20;;;;;;;0.20;0.20;;;-5.20;99.90;;;;;;5109699;28;20163;-67
2020/12/27 06:16:49;;;;;;;0.20;0.20;;;-5.40;99.90;;;;;;5109539;28;20211;-66
2020/12/27 06:19:28;;;;;;;0.20;0.20;;;-5.40;99.90;;;;;;5109413;28;20247;-67
2020/12/27 06:22:05;;;;;;;0.20;0.20;;;-5.30;99.90;;;;;;5109544;28;20209;-66
2020/12/27 06:24:31;;;;;;;0.20;0.20;;;-5.30;99.90;;;;;;5109403;28;20151;-66
2020/12/27 06:26:58;;;;;;;0.82;0.82;;;-5.30;99.90;;;;;;5108095;28;20191;-66
2020/12/27 06:29:33;;;;;;;0.30;0.30;;;-5.30;99.90;;;;;;5109492;28;20163;-67
2020/12/27 06:32:01;;;;;;;0.30;0.30;;;-5.30;99.90;;;;;;5109463;28;20239;-67
2020/12/27 06:34:27;;;;;;;0.10;0.10;;;-5.50;99.90;;;;;;5109353;28;20155;-67
2020/12/27 06:36:53;;;;;;;0.40;0.40;;;-5.40;99.90;;;;;;5109250;28;20191;-67
2020/12/27 06:39:30;;;;;;;0.30;0.30;;;-5.50;99.90;;;;;;5109410;28;20197;-67
2020/12/27 06:42:15;;;;;;;0.32;0.32;;;-5.40;99.90;;;;;;5108250;28;20197;-67
2020/12/27 06:44:49;;;;;;;0.10;0.10;;;-5.60;99.90;;;;;;5109489;28;20219;-67
2020/12/27 06:47:16;;;;;;;0.20;0.20;;;-5.70;99.90;;;;;;5109196;28;20187;-66
2020/12/27 06:49:43;;;;;;;0.85;0.85;;;-5.60;99.90;;;;;;5108105;28;20252;-66
2020/12/27 06:52:18;;;;;;;0.32;0.32;;;-5.60;99.90;;;;;;5109231;28;20222;-67
2020/12/27 06:54:49;;;;;;;0.30;0.30;;;-5.70;99.90;;;;;;5109421;28;20151;-66
2020/12/27 06:57:44;;;;;;;0.30;0.30;;;-5.80;99.90;;;;;;5109154;28;20198;-66
2020/12/27 07:00:29;;;;;;;0.30;0.30;;;-5.80;99.90;;;;;;5109082;28;20184;-66
2020/12/27 07:03:11;;;;;;;0.20;0.20;;;-5.60;99.90;;;;;;5109133;28;20219;-66
2020/12/27 07:05:38;;;;;;;0.25;0.25;;;-5.30;99.90;;;;;;5109099;28;20164;-67
2020/12/27 07:08:07;;;;;;;0.30;0.30;;;-5.40;99.90;;;;;;5109231;28;20159;-66
2020/12/27 07:10:35;;;;;;;0.55;0.55;;;-5.40;99.90;;;;;;5107811;28;20655;-67
2020/12/27 07:13:04;;;;;;;0.20;0.20;;;-5.30;99.90;;;;;;5107931;28;20175;-66
2020/12/27 07:15:31;;;;;;;0.30;0.30;;;-5.30;99.90;;;;;;5108919;28;20234;-66
2020/12/27 07:18:07;;;;;;;0.10;0.10;;;-5.10;99.90;;;;;;5109027;28;20158;-67
2020/12/27 07:20:35;;;;;;;0.20;0.20;;;-4.90;99.90;;;;;;5107579;28;20202;-66
2020/12/27 07:23:00;;;;;;;0.30;0.30;;;-4.70;99.90;;;;;;5109058;28;20160;-66
2020/12/27 07:25:29;;;;;;;0.77;0.77;;;-4.50;99.90;;;;;;5108878;28;20169;-67
2020/12/27 07:27:58;;;;;;;1.05;1.00;;;-4.40;99.90;;;;;;5108814;28;20151;-67
2020/12/27 07:30:27;;;;;;;0.20;0.20;;;-4.40;99.90;;;;;;5108111;28;20224;-67
2020/12/27 07:32:52;;;;;;;0.30;0.30;;;-4.10;99.90;;;;;;5112733;28;20167;-67
2020/12/27 07:35:23;;;;;;;0.20;0.20;;;-3.90;99.90;;;;;;5112555;28;20185;-67
2020/12/27 07:38:01;;;;;;;0.20;0.20;;;-3.90;99.90;;;;;;5112440;28;20192;-66
2020/12/27 07:40:35;;;;;;;1.67;1.58;;;-3.80;99.90;;;;;;5112299;28;20195;-67
2020/12/27 07:43:07;;;;;;;1.17;1.08;;;-3.50;99.90;;;;;;5112253;28;20219;-67
2020/12/27 07:45:32;;;;;;;0.20;0.20;;;-3.40;99.90;;;;;;5112365;28;20180;-66
2020/12/27 07:47:58;;;;;;;0.63;0.63;;;-3.30;99.90;;;;;;5112398;28;20170;-67
2020/12/27 07:50:25;;;;;;;0.20;0.20;;;-3.20;99.90;;;;;;5112220;28;20612;-67
2020/12/27 07:52:57;;;;;;;0.20;0.20;;;-3.10;99.90;;;;;;5112221;28;20151;-66
2020/12/27 07:55:39;;;;;;;0.20;0.20;;;-3.00;99.90;;;;;;5112051;28;20163;-66
2020/12/27 07:58:06;;;;;;;0.30;0.30;;;-2.90;99.90;;;;;;5110663;28;20195;-67
2020/12/27 08:00:35;;;;;;;1.02;1.02;;;-2.80;99.90;;;;;;5111880;28;20183;-67
2020/12/27 08:03:08;;;;;;;0.73;0.73;;;-2.70;99.90;;;;;;5112006;28;20167;-66
2020/12/27 08:05:36;;;;;;;0.57;0.57;;;-2.60;99.90;;;;;;5111837;28;20209;-67
2020/12/27 08:08:12;;;;;;;0.25;0.25;;;-2.50;99.90;;;;;;5111913;28;20159;-67
2020/12/27 08:10:39;;;;;;;0.95;0.95;;;-2.40;99.90;;;;;;5110582;28;20179;-67
2020/12/27 08:13:06;;;;;;;0.95;0.95;;;-2.50;99.90;;;;;;5111863;28;20191;-67
2020/12/27 08:15:40;;;;;;;0.30;0.30;;;-2.50;99.90;;;;;;5111734;28;20164;-66
2020/12/27 08:18:10;;;;;;;0.40;0.40;;;-2.30;99.90;;;;;;5111534;28;20160;-66
2020/12/27 08:20:50;;;;;;;0.20;0.20;;;-2.10;99.90;;;;;;5111605;28;20194;-67
2020/12/27 08:23:17;;;;;;;0.20;0.20;;;-1.80;99.90;;;;;;5111703;28;20151;-67
2020/12/27 08:25:44;;;;;;;0.20;0.20;;;-1.90;99.90;;;;;;5110264;28;20191;-67
2020/12/27 08:28:16;;;;;;;0.80;0.80;;;-2.00;99.90;;;;;;5111424;28;20152;-67
2020/12/27 08:30:44;;;;;;;0.20;0.20;;;-1.80;99.90;;;;;;5111420;28;20166;-66
2020/12/27 08:33:15;;;;;;;0.20;0.20;;;-1.60;99.90;;;;;;5111336;28;20167;-67
2020/12/27 08:35:44;;;;;;;0.25;0.25;;;-1.40;99.90;;;;;;5111322;28;20186;-67
2020/12/27 08:38:16;;;;;;;1.45;0.50;;;-1.40;99.90;;;;;;5111293;28;20632;-66
2020/12/27 08:40:45;;;;;;;0.20;0.20;;;-1.90;99.90;;;;;;5110996;28;20216;-67
2020/12/27 08:43:32;;;;;;;0.20;0.20;;;-2.10;99.90;;;;;;5110969;28;20215;-66
2020/12/27 08:45:58;;;;;;;0.20;0.20;;;-2.20;99.90;;;;;;5109886;28;20183;-66
2020/12/27 08:48:52;;;;;;;0.10;0.10;;;-2.20;99.90;;;;;;5111044;28;20612;-67
2020/12/27 08:51:20;;;;;;;0.20;0.20;;;-2.20;99.90;;;;;;5111012;28;20163;-67
2020/12/27 08:53:47;;;;;;;0.13;0.13;;;-2.20;99.90;;;;;;5109665;28;20239;-67
2020/12/27 08:56:14;;;;;;;1.00;0.52;;;-2.30;99.90;;;;;;5110744;28;20183;-67
2020/12/27 08:58:53;;;;;;;0.20;0.20;;;-2.30;99.90;;;;;;5110908;28;20600;-66
2020/12/27 09:01:24;;;;;;;0.20;0.20;;;-2.20;99.90;;;;;;5110735;28;20215;-66
2020/12/27 09:03:50;;;;;;;0.30;0.30;;;-2.10;99.90;;;;;;5110866;28;20158;-65
2020/12/27 09:06:16;;;;;;;0.20;0.20;;;-2.10;99.90;;;;;;5110600;28;20187;-67
2020/12/27 09:08:42;;;;;;;0.68;0.68;;;-2.10;99.90;;;;;;5110623;28;20158;-66
2020/12/27 09:11:08;;;;;;;0.22;0.22;;;-2.10;99.90;;;;;;5110761;28;20159;-65
2020/12/27 09:13:39;;;;;;;0.30;0.30;;;-2.00;99.90;;;;;;5109231;28;20197;-65
2020/12/27 09:16:05;;;;;;;0.20;0.20;;;-1.90;99.90;;;;;;5110568;28;20187;-66
2020/12/27 09:18:32;;;;;;;0.10;0.10;;;-1.80;99.90;;;;;;5110270;28;20189;-67
2020/12/27 09:21:06;;;;;;;0.20;0.20;;;-1.70;99.90;;;;;;5109967;28;20198;-66
2020/12/27 09:23:33;;;;;;;0.63;0.63;;;-1.60;99.90;;;;;;5110332;28;20208;-67
2020/12/27 09:26:22;;;;;;;0.20;0.20;;;-1.40;99.90;;;;;;5110391;28;20198;-67
2020/12/27 09:28:48;;;;;;;0.20;0.20;;;-1.10;99.90;;;;;;5110215;28;20156;-67
2020/12/27 09:31:14;;;;;;;0.17;0.17;;;-1.00;99.90;;;;;;5110407;28;20284;-66
2020/12/27 09:33:48;;;;;;;0.20;0.20;;;-0.70;99.90;;;;;;5108944;28;20175;-66
2020/12/27 09:36:15;;;;;;;0.30;0.30;;;-0.40;99.90;;;;;;5110112;28;20187;-66
2020/12/27 09:38:43;;;;;;;0.20;0.20;;;0.10;99.90;;;;;;5110130;28;20156;-66
2020/12/27 09:41:20;;;;;;;0.20;0.20;;;0.50;99.90;;;;;;5110113;28;20551;-66
2020/12/27 09:43:59;;;;;;;0.25;0.25;;;0.90;99.90;;;;;;5109855;28;20273;-67
2020/12/27 09:46:49;;;;;;;0.55;0.55;;;1.30;99.90;;;;;;5108529;28;20191;-67
2020/12/27 09:49:33;;;;;;;0.20;0.20;;;1.80;99.90;;;;;;5109682;28;20179;-67
2020/12/27 09:52:02;;;;;;;0.20;0.20;;;3.10;99.90;;;;;;5110066;28;20156;-66
2020/12/27 09:54:31;;;;;;;0.10;0.10;;;4.90;99.90;;;;;;5109532;28;20183;-67
2020/12/27 09:56:58;;;;;;;0.28;0.28;;;6.80;99.90;;;;;;5109648;28;20199;-66
2020/12/27 09:59:24;;;;;;;0.10;0.10;;;8.20;99.90;;;;;;5109718;28;20202;-67
2020/12/27 10:01:49;;;;;;;0.30;0.30;;;9.40;99.90;;;;;;5109946;28;20151;-67
2020/12/27 10:04:15;;;;;;;0.30;0.30;;;9.60;99.90;;;;;;5109793;28;20190;-67
2020/12/27 10:06:41;;;;;;;0.77;0.77;;;10.70;99.90;;;;;;5109530;28;20378;-67
2020/12/27 10:09:07;;;;;;;0.10;0.10;;;10.30;99.90;;;;;;5109757;28;20163;-67
2020/12/27 10:11:33;;;;;;;0.35;0.35;;;10.60;99.90;;;;;;5109666;28;20219;-67
2020/12/27 10:13:59;;;;;;;0.10;0.10;;;10.70;99.90;;;;;;5109317;28;20194;-67
2020/12/27 10:16:24;;;;;;;0.52;0.52;;;9.70;99.90;;;;;;5109541;28;20191;-67
2020/12/27 10:18:50;;;;;;;1.65;0.40;;;8.60;99.90;;;;;;5109346;28;20174;-66
2020/12/27 10:21:16;;;;;;;3.25;0.93;;;7.80;99.90;;;;;;5108241;28;20187;-66
2020/12/27 10:23:42;;;;;;;0.30;0.30;;;6.90;99.90;;;;;;5109445;28;20167;-66
2020/12/27 10:26:12;;;;;;;0.25;0.25;;;6.50;99.90;;;;;;5109424;28;20558;-66
2020/12/27 10:28:38;;;;;;;1.00;1.00;;;6.20;99.90;;;;;;5109436;28;20152;-66
2020/12/27 10:31:04;;;;;;;0.30;0.30;;;5.20;99.90;;;;;;5109486;28;20164;-65
2020/12/27 10:33:29;;;;;;;0.35;0.35;;;5.00;99.90;;;;;;5109297;28;20163;-66
2020/12/27 10:35:57;;;;;;;2.15;1.95;;;4.80;99.90;;;;;;5109213;28;20246;-65
2020/12/27 10:38:23;;;;;;;0.52;0.52;;;4.50;99.90;;;;;;5109436;28;20159;-65
2020/12/27 10:40:49;;;;;;;1.58;1.48;;;4.30;99.90;;;;;;5109203;28;20242;-65
2020/12/27 10:43:15;;;;;;;0.20;0.20;;;3.90;99.90;;;;;;5108921;28;20270;-66
2020/12/27 10:45:40;;;;;;;0.20;0.20;;;3.90;99.90;;;;;;5109254;28;20945;-65
2020/12/27 10:48:06;;;;;;;0.57;0.57;;;3.80;99.90;;;;;;5109359;28;20156;-64
2020/12/27 10:50:36;;;;;;;0.10;0.10;;;3.30;99.90;;;;;;5109107;28;20164;-65
2020/12/27 10:53:02;;;;;;;0.20;0.20;;;3.10;99.90;;;;;;5109195;28;20159;-64
2020/12/27 10:55:28;;;;;;;0.20;0.20;;;3.10;99.90;;;;;;5109091;28;20163;-65
2020/12/27 10:57:53;;;;;;;0.20;0.20;;;3.20;99.90;;;;;;5109192;28;20169;-65
2020/12/27 11:00:19;;;;;;;0.20;0.20;;;3.40;99.90;;;;;;5108981;28;20247;-64
2020/12/27 11:02:45;;;;;;;0.20;0.20;;;3.50;99.90;;;;;;5109118;28;20163;-66
2020/12/27 11:05:11;;;;;;;0.13;0.13;;;3.50;99.90;;;;;;5109387;28;20174;-65
2020/12/27 11:07:37;;;;;;;10.50;2.25;;;3.00;99.90;;;;;;5112847;28;20214;-66
2020/12/27 11:10:03;;;;;;;0.20;0.20;;;2.90;99.90;;;;;;5113076;28;20170;-65
2020/12/27 11:12:29;;;;;;;0.20;0.20;;;2.60;99.90;;;;;;5112821;28;20155;-65
2020/12/27 11:14:55;;;;;;;0.20;0.20;;;2.20;99.90;;;;;;5112934;28;20225;-65
2020/12/27 11:17:23;;;;;;;0.20;0.20;;;2.00;99.90;;;;;;5112865;28;20187;-65
2020/12/27 11:19:49;;;;;;;0.80;0.80;;;2.00;99.90;;;;;;5112588;28;20209;-65
2020/12/27 11:22:15;;;;;;;0.85;0.85;;;2.10;99.90;;;;;;5112723;28;20156;-66
2020/12/27 11:24:40;;;;;;;0.20;0.20;;;1.80;99.90;;;;;;5111326;28;20174;-66
2020/12/27 11:27:06;;;;;;;0.20;0.20;;;1.60;99.90;;;;;;5112477;28;20191;-66
2020/12/27 11:29:32;;;;;;;0.73;0.73;;;1.60;99.90;;;;;;5112396;28;20155;-65
2020/12/27 11:31:58;;;;;;;0.20;0.20;;;1.50;99.90;;;;;;5112817;28;20159;-65
2020/12/27 11:34:27;;;;;;;0.10;0.10;;;1.50;99.90;;;;;;5111364;28;20171;-65
2020/12/27 11:36:53;;;;;;;0.73;0.73;;;1.50;99.90;;;;;;5112298;28;20195;-66
2020/12/27 11:39:19;;;;;;;0.50;0.50;;;1.50;99.90;;;;;;5112220;28;20688;-65
2020/12/27 11:41:48;;;;;;;0.20;0.20;;;1.40;99.90;;;;;;5110992;28;20164;-66
2020/12/27 11:44:14;;;;;;;0.20;0.20;;;1.30;99.90;;;;;;5112112;28;20226;-65
2020/12/27 11:46:43;;;;;;;0.20;0.20;;;1.30;99.90;;;;;;5112287;28;20198;-65
2020/12/27 11:49:09;;;;;;;0.10;0.10;;;1.20;99.90;;;;;;5112040;28;20170;-65
2020/12/27 11:51:35;;;;;;;0.20;0.20;;;1.10;99.90;;;;;;5112104;28;20187;-65
2020/12/27 11:54:01;;;;;;;0.20;0.20;;;1.10;99.90;;;;;;5112239;28;20166;-65
2020/12/27 11:56:27;;;;;;;0.40;0.40;;;1.20;99.90;;;;;;5111883;28;20202;-66
2020/12/27 11:58:53;;;;;;;0.50;0.50;;;1.00;99.90;;;;;;5111845;28;20164;-67
2020/12/27 12:01:19;;;;;;;0.17;0.17;;;1.00;99.90;;;;;;5112202;28;20156;-64
2020/12/27 12:03:45;;;;;;;0.50;0.50;;;1.10;99.90;;;;;;5112050;28;20219;-65
2020/12/27 12:06:13;;;;;;;0.10;0.10;;;0.90;99.90;;;;;;5111768;28;20195;-64
2020/12/27 12:08:42;;;;;;;0.20;0.20;;;0.90;99.90;;;;;;5111979;28;20221;-66
2020/12/27 12:11:08;;;;;;;0.20;0.20;;;1.00;99.90;;;;;;5098259;28;20232;-66
2020/12/27 12:13:34;;;;;;;0.20;0.20;;;1.10;99.90;;;;;;5101068;28;20176;-65
2020/12/27 12:16:01;;;;;;;0.25;0.25;;;1.10;99.90;;;;;;5092439;28;20195;-64
2020/12/27 12:18:26;;;;;;;0.10;0.10;;;1.00;99.90;;;;;;5106439;28;20312;-64
2020/12/27 12:20:52;;;;;;;0.38;0.38;;;0.90;99.90;;;;;;5099685;28;20212;-67
2020/12/27 12:23:18;;;;;;;0.45;0.45;;;0.90;99.90;;;;;;5099217;28;20167;-65
2020/12/27 12:25:46;;;;;;;0.20;0.20;;;0.90;99.90;;;;;;5102716;28;20255;-65
2020/12/27 12:28:13;;;;;;;0.40;0.40;;;1.00;99.90;;;;;;5104601;28;20186;-64
2020/12/27 12:30:43;;;;;;;0.10;0.10;;;1.00;99.90;;;;;;5089774;28;20212;-65
2020/12/27 12:33:10;;;;;;;0.22;0.22;;;0.90;99.90;;;;;;5089780;28;20179;-66
2020/12/27 12:35:36;;;;;;;0.20;0.20;;;1.00;99.90;;;;;;5092092;28;20203;-66
2020/12/27 12:38:03;;;;;;;0.10;0.10;;;1.10;99.90;;;;;;5090914;28;20166;-66
2020/12/27 12:40:29;;;;;;;0.20;0.20;;;1.20;99.90;;;;;;5101428;28;20199;-66
2020/12/27 12:42:55;;;;;;;0.98;0.98;;;1.20;99.90;;;;;;5107572;28;20278;-66
2020/12/27 12:45:21;;;;;;;0.20;0.20;;;1.30;99.90;;;;;;5107939;28;20207;-66
2020/12/27 12:47:47;;;;;;;0.10;0.10;;;1.30;99.90;;;;;;5107988;28;20194;-66
2020/12/27 12:50:12;;;;;;;0.20;0.20;;;1.20;99.90;;;;;;5103257;28;20196;-70
2020/12/27 12:52:38;;;;;;;0.50;0.50;;;1.20;99.90;;;;;;5087311;28;20171;-67
2020/12/27 12:55:08;;;;;;;0.10;0.10;;;1.20;99.90;;;;;;5090501;28;20195;-67